Onde está Zambujeiro, Santarem en Portugal?

Zambujeiro está situado na região Santarem em Portugal!

Buscar o nome de uma cidade:

Zambe, Zambujal, Zambrzyce Kapusty, Zambelláta, Zambia

Aqui você vai encontrar a localização de Zambujeiro em um mapa.
Para ver como ele atualmente parece, abaixo estão algumas fotos da região, com webcams online.
Você também pode encontrar a distância para as principais cidades da região e de cidades do resto do Portugal.

6 lugares nomeadas Zambujeiro na Portugal.

Todos os lugares do mundo chamado .

new

Onde está Zambujeiro no mapa?


Webcams perto Zambujeiro

Vasco Carão > South: Garrocheira, Benavente - Airport.


Vasco Carão > South: Garrocheira, Benavente - Airport - Dia
Actual
Vasco Carão > South: Garrocheira, Benavente - Airport - Actual

Benavente > North-East: AIrport, METAR: BENAV 180005Z 36004KT 17/14 Q1015.


Benavente > North-East: AIrport, METAR: BENAV 180005Z 36004KT 17/14 Q1015 - Dia
Actual
Benavente > North-East: AIrport, METAR: BENAV 180005Z 36004KT 17/14 Q1015 - Actual

Lisbon > South: Rua Vasco da Gama.


Lisbon > South: Rua Vasco da Gama - Dia
Actual
Lisbon > South: Rua Vasco da Gama - Actual

Webcams provided by webcams.travel

Distâncias

Onde está Zambujeiro em relação a outros lugares?

Top 10 cidades em Santarem e distância de Zambujeiro.

Cidade#Populaçãokmmilhas
Santarém1293854528
Entroncamento2198876641
Tomar3191688050
Torres Novas4145266842
Samora Correia5141543723
Abrantes6136466943
Ourém7127298553
Rio Maior8120646641
Fátima9117988553
Almeirim10115564025

Top 10 cidades em Portugal e distância de Zambujeiro.

Cidade # Populaçãokmmilhas
Lisbon15177986138
Porto2249630253157
Amadora31788566943
Braga4121393298185
Setúbal51171095534
Coimbra610658014892
Queluz71033987144
Funchal8980411030640
Vila Nova de Gaia970810251156
Loures10662306339